createdAt,value
2018-11-03T00:01:02.387Z,7.37
2018-11-03T00:03:31.797Z,6.45
2018-11-03T00:06:01.589Z,5.62
2018-11-03T00:08:31.055Z,7.15
2018-11-03T00:11:00.236Z,5.97
2018-11-03T00:13:30.913Z,6.15
2018-11-03T00:16:01.162Z,5.85
2018-11-03T00:18:30.405Z,6.75
2018-11-03T00:20:59.550Z,7.37
2018-11-03T00:23:28.730Z,8.60
2018-11-03T00:25:58.118Z,7.42
2018-11-03T00:28:27.285Z,7.45
2018-11-03T00:30:56.456Z,9.30
2018-11-03T00:33:26.609Z,7.22
2018-11-03T00:35:56.623Z,8.25
2018-11-03T00:38:25.819Z,7.75
2018-11-03T00:40:55.009Z,8.13
2018-11-03T00:43:24.205Z,9.08
2018-11-03T00:45:55.426Z,7.87
2018-11-03T00:48:24.634Z,7.65
2018-11-03T00:50:54.101Z,7.60
2018-11-03T00:53:23.304Z,9.28
2018-11-03T00:55:52.582Z,9.60
2018-11-03T00:58:21.753Z,6.90
2018-11-03T01:00:50.946Z,9.20
2018-11-03T01:03:20.172Z,13.55
2018-11-03T01:05:49.385Z,12.82
2018-11-03T01:08:18.892Z,11.73
2018-11-03T01:10:48.733Z,8.95
2018-11-03T01:13:17.910Z,9.63
2018-11-03T01:15:48.103Z,8.68
2018-11-03T01:18:17.308Z,11.25
2018-11-03T01:20:46.438Z,9.23
2018-11-03T01:23:15.673Z,8.70
2018-11-03T01:25:45.013Z,9.98
2018-11-03T01:28:14.215Z,9.48
2018-11-03T01:30:44.653Z,9.00
2018-11-03T01:33:14.067Z,9.75
2018-11-03T01:35:43.419Z,8.70
2018-11-03T01:38:12.594Z,9.50
2018-11-03T01:40:41.755Z,9.30
2018-11-03T01:43:11.696Z,9.38
2018-11-03T01:45:41.542Z,9.65
2018-11-03T01:48:12.104Z,9.08
2018-11-03T01:50:41.413Z,9.05
2018-11-03T01:53:10.645Z,10.38
2018-11-03T01:55:39.874Z,9.73
2018-11-03T01:58:09.070Z,8.88
2018-11-03T02:00:38.231Z,11.68
2018-11-03T02:03:07.461Z,10.48
2018-11-03T02:05:37.638Z,12.00
2018-11-03T02:08:06.872Z,12.00
2018-11-03T02:10:36.042Z,13.78
2018-11-03T02:13:06.482Z,16.10
2018-11-03T02:15:36.414Z,13.78
2018-11-03T02:18:05.808Z,14.03
2018-11-03T02:20:34.998Z,18.90
2018-11-03T02:23:04.130Z,15.63
2018-11-03T02:25:34.455Z,20.92
2018-11-03T02:28:05.524Z,22.42
2018-11-03T02:30:34.705Z,20.72
2018-11-03T02:33:04.893Z,21.42
2018-11-03T02:35:34.868Z,21.50
2018-11-03T02:38:04.044Z,19.55
2018-11-03T02:40:33.247Z,22.45
2018-11-03T02:43:02.647Z,25.57
2018-11-03T02:45:31.827Z,23.50
2018-11-03T02:48:01.061Z,22.45
2018-11-03T02:50:30.262Z,23.02
2018-11-03T02:52:59.481Z,22.05
2018-11-03T02:55:29.424Z,23.30
2018-11-03T02:57:59.809Z,24.50
2018-11-03T03:00:29.006Z,23.87
2018-11-03T03:02:58.781Z,23.52
2018-11-03T03:05:28.892Z,23.73
2018-11-03T03:07:58.082Z,21.30
2018-11-03T03:10:27.414Z,24.20
2018-11-03T03:12:56.683Z,20.70
2018-11-03T03:15:25.909Z,23.40
2018-11-03T03:17:55.205Z,22.42
2018-11-03T03:20:24.385Z,24.30
2018-11-03T03:22:53.580Z,24.47
2018-11-03T03:25:23.400Z,23.42
2018-11-03T03:27:52.601Z,26.77
2018-11-03T03:30:22.479Z,26.10
2018-11-03T03:32:51.678Z,26.87
2018-11-03T03:35:20.962Z,22.22
2018-11-03T03:37:50.738Z,22.90
2018-11-03T03:40:19.942Z,27.67
2018-11-03T03:42:49.159Z,28.77
2018-11-03T03:45:19.215Z,24.95
2018-11-03T03:47:48.441Z,25.17
2018-11-03T03:50:17.663Z,27.60
2018-11-03T03:52:46.823Z,25.10
2018-11-03T03:55:16.145Z,25.80
2018-11-03T03:57:46.410Z,27.70
2018-11-03T04:00:15.686Z,28.12
2018-11-03T04:02:44.865Z,23.30
2018-11-03T04:05:14.727Z,29.10
2018-11-03T04:07:43.930Z,24.37
2018-11-03T04:10:13.114Z,26.87
2018-11-03T04:12:43.037Z,26.95
2018-11-03T04:15:12.408Z,23.80
2018-11-03T04:17:41.600Z,25.82
2018-11-03T04:20:12.431Z,20.57
2018-11-03T04:22:41.617Z,26.42
2018-11-03T04:25:11.356Z,23.10
2018-11-03T04:27:40.576Z,24.25
2018-11-03T04:30:12.164Z,22.42
2018-11-03T04:32:41.849Z,24.40
2018-11-03T04:35:12.471Z,22.30
2018-11-03T04:37:41.683Z,28.25
2018-11-03T04:40:12.149Z,23.70
2018-11-03T04:42:41.853Z,25.48
2018-11-03T04:45:12.031Z,26.23
2018-11-03T04:47:41.520Z,22.65
2018-11-03T04:50:11.424Z,25.82
2018-11-03T04:52:40.602Z,27.75
2018-11-03T04:55:10.190Z,23.65
2018-11-03T04:57:40.577Z,31.82
2018-11-03T05:00:10.337Z,24.27
2018-11-03T05:02:39.601Z,25.77
2018-11-03T05:05:08.985Z,26.05
2018-11-03T05:07:38.231Z,29.35
2018-11-03T05:10:08.471Z,26.10
2018-11-03T05:12:38.170Z,29.10
2018-11-03T05:15:08.541Z,28.92
2018-11-03T05:17:38.738Z,24.35
2018-11-03T05:20:10.550Z,25.77
2018-11-03T05:22:41.495Z,25.55
2018-11-03T05:25:10.849Z,28.73
2018-11-03T05:27:43.827Z,27.00
2018-11-03T05:30:13.037Z,34.40
2018-11-03T05:32:42.627Z,26.12
2018-11-03T05:35:11.982Z,27.37
2018-11-03T05:37:41.546Z,28.32
2018-11-03T05:40:10.743Z,24.52
2018-11-03T05:42:39.977Z,25.80
2018-11-03T05:45:11.220Z,25.50
2018-11-03T05:47:40.767Z,27.20
2018-11-03T05:50:11.031Z,24.43
2018-11-03T05:52:40.690Z,26.93
2018-11-03T05:55:10.515Z,29.75
2018-11-03T05:57:40.278Z,25.48
2018-11-03T06:00:10.693Z,30.65
2018-11-03T06:02:42.094Z,28.02
2018-11-03T06:05:12.599Z,28.00
2018-11-03T06:07:41.793Z,27.25
2018-11-03T06:10:11.822Z,23.02
2018-11-03T06:12:41.009Z,28.17
2018-11-03T06:15:10.398Z,27.65
2018-11-03T06:17:39.862Z,34.35
2018-11-03T06:20:09.114Z,29.65
2018-11-03T06:22:38.503Z,27.07
2018-11-03T06:25:08.552Z,28.80
2018-11-03T06:27:38.129Z,21.17
2018-11-03T06:30:09.635Z,29.18
2018-11-03T06:32:41.088Z,23.42
2018-11-03T06:35:11.400Z,23.47
2018-11-03T06:37:40.565Z,22.48
2018-11-03T06:40:10.044Z,23.20
2018-11-03T06:42:39.261Z,26.20
2018-11-03T06:45:09.216Z,25.50
2018-11-03T06:47:39.268Z,21.80
2018-11-03T06:50:09.447Z,31.42
2018-11-03T06:52:38.719Z,28.30
2018-11-03T06:55:08.923Z,29.48
2018-11-03T06:57:40.555Z,24.63
2018-11-03T07:00:10.834Z,25.97
2018-11-03T07:02:40.048Z,23.55
2018-11-03T07:05:09.920Z,26.62
2018-11-03T07:07:40.321Z,23.60
2018-11-03T07:10:10.554Z,24.70
2018-11-03T07:12:40.454Z,23.75
2018-11-03T07:15:09.810Z,26.75
2018-11-03T07:17:38.974Z,27.50
2018-11-03T07:20:10.330Z,23.98
2018-11-03T07:22:39.553Z,26.70
2018-11-03T07:25:09.045Z,25.45
2018-11-03T07:27:39.945Z,26.05
2018-11-03T07:30:14.029Z,25.57
2018-11-03T07:32:47.914Z,28.23
2018-11-03T07:35:18.148Z,23.92
2018-11-03T07:37:47.995Z,25.02
2018-11-03T07:40:17.238Z,25.17
2018-11-03T07:42:47.430Z,24.05
2018-11-03T07:45:16.719Z,19.27
2018-11-03T07:47:46.169Z,22.90
2018-11-03T07:50:17.040Z,22.37
2018-11-03T07:52:46.614Z,21.75
2018-11-03T07:55:15.951Z,22.00
2018-11-03T07:57:45.154Z,24.65
2018-11-03T08:00:14.413Z,24.37
2018-11-03T08:02:43.618Z,22.32
2018-11-03T08:05:14.028Z,28.87
2018-11-03T08:07:43.211Z,22.90
2018-11-03T08:10:12.797Z,21.27
2018-11-03T08:12:42.701Z,22.55
2018-11-03T08:15:12.491Z,21.02
2018-11-03T08:17:41.763Z,23.07
2018-11-03T08:20:11.813Z,23.42
2018-11-03T08:22:41.937Z,21.52
2018-11-03T08:25:12.640Z,21.55
2018-11-03T08:27:43.257Z,21.17
2018-11-03T08:30:13.696Z,19.40
2018-11-03T08:32:43.859Z,22.32
2018-11-03T08:35:14.061Z,17.98
2018-11-03T08:37:43.997Z,16.27
2018-11-03T08:40:13.528Z,16.37
2018-11-03T08:42:42.752Z,18.87
2018-11-03T08:45:12.348Z,20.08
2018-11-03T08:47:42.583Z,21.23
2018-11-03T08:50:13.089Z,17.52
2018-11-03T08:52:44.237Z,16.35
2018-11-03T08:55:14.287Z,22.58
2018-11-03T08:57:44.612Z,16.20
2018-11-03T09:00:15.007Z,21.73
2018-11-03T09:02:44.589Z,17.30
2018-11-03T09:05:13.853Z,17.95
2018-11-03T09:07:43.354Z,17.17
2018-11-03T09:10:13.830Z,15.88
2018-11-03T09:12:43.280Z,17.20
2018-11-03T09:15:13.947Z,19.15
2018-11-03T09:17:43.836Z,16.52
2018-11-03T09:20:15.635Z,15.32
2018-11-03T09:22:45.589Z,16.77
2018-11-03T09:25:15.802Z,22.05
2018-11-03T09:27:45.980Z,18.25
2018-11-03T09:30:18.381Z,16.05
2018-11-03T09:32:47.966Z,17.75
2018-11-03T09:35:17.373Z,20.57
2018-11-03T09:37:46.580Z,21.10
2018-11-03T09:40:17.638Z,22.45
2018-11-03T09:42:48.236Z,16.12
2018-11-03T09:45:18.605Z,15.30
2018-11-03T09:47:47.905Z,14.38
2018-11-03T09:50:17.161Z,16.80
2018-11-03T09:52:46.418Z,21.45
2018-11-03T09:55:17.363Z,23.42
2018-11-03T09:57:46.618Z,16.35
2018-11-03T10:00:18.983Z,15.30
2018-11-03T10:02:48.312Z,15.30
2018-11-03T10:05:17.986Z,14.15
2018-11-03T10:07:47.277Z,20.55
2018-11-03T10:10:19.356Z,15.23
2018-11-03T10:12:51.097Z,14.15
2018-11-03T10:15:20.548Z,16.87
2018-11-03T10:17:49.818Z,17.37
2018-11-03T10:20:19.113Z,14.15
2018-11-03T10:22:48.463Z,14.28
2018-11-03T10:25:19.173Z,16.42
2018-11-03T10:27:48.922Z,17.17
2018-11-03T10:30:19.102Z,16.10
2018-11-03T10:32:48.735Z,19.10
2018-11-03T10:35:18.851Z,14.87
2018-11-03T10:37:49.546Z,15.10
2018-11-03T10:40:19.057Z,14.33
2018-11-03T10:42:50.967Z,14.75
2018-11-03T10:45:20.498Z,15.00
2018-11-03T10:47:50.029Z,15.95
2018-11-03T10:50:20.778Z,16.55
2018-11-03T10:52:51.367Z,15.90
2018-11-03T10:55:21.541Z,15.00
2018-11-03T10:57:50.974Z,18.00
2018-11-03T11:00:26.355Z,14.00
2018-11-03T11:03:01.129Z,13.68
2018-11-03T11:05:36.002Z,16.02
2018-11-03T11:08:13.668Z,15.32
2018-11-03T11:10:48.862Z,15.03
2018-11-03T11:13:20.603Z,15.68
2018-11-03T11:15:53.335Z,15.03
2018-11-03T11:18:22.878Z,14.90
2018-11-03T11:20:52.870Z,16.37
2018-11-03T11:23:22.583Z,14.80
2018-11-03T11:25:51.882Z,16.30
2018-11-03T11:28:29.371Z,17.30
2018-11-03T11:30:58.718Z,16.17
2018-11-03T11:33:28.218Z,14.90
2018-11-03T11:35:57.795Z,24.05
2018-11-03T11:38:27.039Z,16.57
2018-11-03T11:40:56.328Z,16.05
2018-11-03T11:43:25.824Z,17.20
2018-11-03T11:45:55.103Z,16.85
2018-11-03T11:48:24.465Z,17.00
2018-11-03T11:50:53.978Z,15.58
2018-11-03T11:53:23.332Z,14.58
2018-11-03T11:55:53.063Z,17.02
2018-11-03T11:58:22.344Z,15.20
2018-11-03T12:00:52.398Z,18.40
2018-11-03T12:03:21.635Z,18.75
2018-11-03T12:05:54.255Z,17.90
2018-11-03T12:08:23.476Z,14.90
2018-11-03T12:10:53.739Z,15.58
2018-11-03T12:13:23.137Z,18.70
2018-11-03T12:15:53.943Z,17.92
2018-11-03T12:18:24.677Z,18.73
2018-11-03T12:20:53.960Z,17.37
2018-11-03T12:23:23.698Z,17.52
2018-11-03T12:25:53.146Z,17.48
2018-11-03T12:28:22.364Z,18.90
2018-11-03T12:30:51.666Z,19.32
2018-11-03T12:33:21.478Z,19.20
2018-11-03T12:36:07.405Z,17.77
2018-11-03T12:38:37.898Z,18.65
2018-11-03T12:41:07.299Z,17.82
2018-11-03T12:43:36.463Z,17.40
2018-11-03T12:46:07.706Z,16.57
2018-11-03T12:48:36.958Z,17.20
2018-11-03T12:51:06.648Z,17.48
2018-11-03T12:53:35.952Z,18.10
2018-11-03T12:56:05.381Z,17.70
2018-11-03T12:58:35.463Z,16.05
2018-11-03T13:01:04.775Z,17.00
2018-11-03T13:03:35.187Z,17.60
2018-11-03T13:06:06.663Z,17.70
2018-11-03T13:08:35.923Z,17.23
2018-11-03T13:11:05.347Z,18.25
2018-11-03T13:13:35.211Z,17.85
2018-11-03T13:16:05.536Z,17.75
2018-11-03T13:18:34.829Z,16.50
2018-11-03T13:21:04.442Z,15.30
2018-11-03T13:23:33.731Z,20.02
2018-11-03T13:26:06.535Z,16.45
2018-11-03T13:28:38.036Z,15.55
2018-11-03T13:31:07.632Z,14.90
2018-11-03T13:33:36.910Z,17.02
2018-11-03T13:36:07.482Z,16.30
2018-11-03T13:38:38.082Z,15.98
2018-11-03T13:41:08.349Z,18.32
2018-11-03T13:43:37.617Z,14.95
2018-11-03T13:46:07.225Z,14.20
2018-11-03T13:48:37.304Z,16.30
2018-11-03T13:51:07.477Z,13.98
2018-11-03T13:53:37.346Z,15.03
2018-11-03T13:56:07.373Z,17.23
2018-11-03T13:58:36.716Z,15.95
2018-11-03T14:01:06.651Z,16.15
2018-11-03T14:03:36.330Z,15.50
2018-11-03T14:08:44.519Z,14.58
2018-11-03T14:11:14.768Z,16.25
2018-11-03T14:13:43.926Z,15.53
2018-11-03T14:16:14.410Z,16.23
2018-11-03T14:18:43.666Z,14.68
2018-11-03T14:21:16.655Z,16.25
2018-11-03T14:23:46.675Z,15.08
2018-11-03T14:26:16.066Z,17.32
2018-11-03T14:28:45.825Z,18.98
2018-11-03T14:31:17.422Z,18.45
2018-11-03T14:33:47.428Z,18.20
2018-11-03T14:36:16.883Z,16.45
2018-11-03T14:38:46.182Z,17.62
2018-11-03T14:41:15.778Z,15.83
2018-11-03T14:43:44.948Z,15.85
2018-11-03T14:46:19.557Z,15.13
2018-11-03T14:48:48.835Z,14.58
2018-11-03T14:51:18.879Z,16.60
2018-11-03T14:53:48.074Z,15.25
2018-11-03T14:56:17.743Z,16.10
2018-11-03T14:58:47.163Z,15.13
2018-11-03T15:04:09.504Z,15.35
2018-11-03T15:08:23.067Z,17.02
2018-11-03T15:10:54.130Z,14.75
2018-11-03T15:13:23.794Z,15.83
2018-11-03T15:15:54.267Z,16.93
2018-11-03T15:18:24.550Z,14.10
2018-11-03T15:20:54.225Z,15.58
2018-11-03T15:23:23.466Z,15.53
2018-11-03T15:25:54.660Z,14.15
2018-11-03T15:28:25.321Z,18.27
2018-11-03T15:30:54.702Z,15.35
2018-11-03T15:33:23.961Z,13.65
2018-11-03T15:35:54.111Z,13.80
2018-11-03T15:38:23.429Z,14.70
2018-11-03T15:40:53.989Z,14.10
2018-11-03T15:43:24.638Z,12.73
2018-11-03T15:45:54.117Z,13.50
2018-11-03T15:48:23.345Z,15.58
2018-11-03T15:50:52.591Z,19.32
2018-11-03T15:53:21.950Z,18.00
2018-11-03T15:55:51.829Z,20.65
2018-11-03T15:58:21.350Z,19.82
2018-11-03T16:00:50.641Z,17.90
2018-11-03T16:03:20.894Z,18.30
2018-11-03T16:05:50.407Z,16.45
2018-11-03T16:08:20.236Z,17.20
2018-11-03T16:10:51.812Z,17.25
2018-11-03T16:13:24.872Z,14.50
2018-11-03T16:15:57.458Z,15.05
2018-11-03T16:18:26.909Z,16.50
2018-11-03T16:20:56.527Z,17.60
2018-11-03T16:23:26.314Z,19.48
2018-11-03T16:25:56.707Z,14.23
2018-11-03T16:28:26.340Z,16.12
2018-11-03T16:30:57.783Z,17.20
2018-11-03T16:33:28.019Z,13.15
2018-11-03T16:36:00.527Z,15.78
2018-11-03T16:38:30.762Z,13.68
2018-11-03T16:41:02.551Z,13.22
2018-11-03T16:43:33.998Z,14.10
2018-11-03T16:46:05.166Z,15.40
2018-11-03T16:48:34.717Z,14.73
2018-11-03T16:51:05.459Z,14.98
2018-11-03T16:53:37.471Z,13.98
2018-11-03T16:56:06.966Z,14.85
2018-11-03T16:58:37.205Z,15.78
2018-11-03T17:01:08.127Z,14.05
2018-11-03T17:03:38.230Z,15.98
2018-11-03T17:06:07.531Z,19.17
2018-11-03T17:08:36.774Z,15.68
2018-11-03T17:11:07.664Z,13.13
2018-11-03T17:13:36.888Z,16.70
2018-11-03T17:16:06.468Z,15.98
2018-11-03T17:18:35.670Z,17.23
2018-11-03T17:21:06.013Z,26.12
2018-11-03T17:23:35.266Z,18.60
2018-11-03T17:26:04.946Z,14.30
2018-11-03T17:28:34.243Z,15.10
2018-11-03T17:31:03.671Z,18.60
2018-11-03T17:33:32.903Z,13.22
2018-11-03T17:36:03.746Z,13.90
2018-11-03T17:38:35.428Z,13.03
2018-11-03T17:41:11.097Z,15.30
2018-11-03T17:43:44.515Z,18.00
2018-11-03T17:46:16.624Z,17.55
2018-11-03T17:48:47.957Z,16.45
2018-11-03T17:51:17.204Z,14.63
2018-11-03T17:53:46.749Z,17.57
2018-11-03T17:56:17.616Z,14.80
2018-11-03T17:58:47.489Z,16.15
2018-11-03T18:01:16.775Z,15.85
2018-11-03T18:03:47.004Z,17.90
2018-11-03T18:06:17.680Z,11.78
2018-11-03T18:08:47.693Z,12.78
2018-11-03T18:11:17.923Z,11.93
2018-11-03T18:13:49.258Z,18.62
2018-11-03T18:16:24.668Z,15.53
2018-11-03T18:18:58.104Z,13.48
2018-11-03T18:21:28.781Z,11.55
2018-11-03T18:23:59.731Z,11.35
2018-11-03T18:26:29.282Z,10.45
2018-11-03T18:28:59.803Z,11.00
2018-11-03T18:31:30.214Z,12.07
2018-11-03T18:34:00.271Z,14.03
2018-11-03T18:36:31.224Z,13.50
2018-11-03T18:39:02.286Z,12.30
2018-11-03T18:41:31.620Z,12.55
2018-11-03T18:44:00.848Z,19.60
2018-11-03T18:46:30.451Z,14.40
2018-11-03T18:49:00.501Z,11.20
2018-11-03T18:51:30.986Z,10.08
2018-11-03T18:54:02.292Z,12.90
2018-11-03T18:56:33.139Z,11.78
2018-11-03T18:59:02.598Z,14.15
2018-11-03T19:01:35.375Z,13.93
2018-11-03T19:04:06.260Z,20.62
2018-11-03T19:06:38.331Z,17.32
2018-11-03T19:09:13.488Z,18.65
2018-11-03T19:14:40.071Z,14.05
2018-11-03T19:17:37.649Z,10.53
2018-11-03T19:21:06.179Z,12.25
2018-11-03T19:23:36.728Z,12.65
2018-11-03T19:29:08.305Z,14.65
2018-11-03T19:31:51.689Z,21.27
2018-11-03T19:34:33.918Z,12.60
2018-11-03T19:38:10.652Z,11.45
2018-11-03T19:40:46.150Z,12.78
2018-11-03T19:43:47.351Z,11.48
2018-11-03T19:46:28.910Z,15.83
2018-11-03T19:49:04.623Z,13.80
2018-11-03T19:51:56.642Z,14.58
2018-11-03T19:54:37.243Z,17.92
2018-11-03T19:57:29.613Z,16.62
2018-11-03T20:02:44.260Z,12.40
2018-11-03T20:05:16.874Z,13.93
2018-11-03T20:07:49.037Z,11.45
2018-11-03T20:10:19.125Z,11.57
2018-11-03T20:12:56.918Z,10.72
2018-11-03T20:15:33.675Z,10.00
2018-11-03T20:18:20.410Z,10.30
2018-11-03T20:24:04.185Z,10.88
2018-11-03T20:26:33.822Z,9.13
2018-11-03T20:36:13.853Z,9.88
2018-11-03T20:39:01.632Z,10.10
2018-11-03T20:51:12.737Z,10.30
2018-11-03T20:53:43.079Z,9.25
2018-11-03T20:56:16.422Z,10.88
2018-11-03T21:02:02.720Z,10.80
2018-11-03T21:08:04.150Z,13.65
2018-11-03T21:10:33.415Z,11.60
2018-11-03T21:15:40.374Z,11.85
2018-11-03T21:18:13.999Z,11.65
2018-11-03T21:20:48.254Z,11.40
2018-11-03T21:23:19.907Z,12.18
2018-11-03T21:25:53.522Z,10.00
2018-11-03T21:28:25.746Z,11.88
2018-11-03T21:30:59.822Z,9.88
2018-11-03T21:33:34.890Z,10.82
2018-11-03T21:36:04.791Z,10.65
2018-11-03T21:38:37.044Z,11.03
2018-11-03T21:41:15.104Z,11.63
2018-11-03T21:43:59.077Z,13.20
2018-11-03T21:49:23.272Z,14.50
2018-11-03T21:51:54.189Z,13.00
2018-11-03T21:54:25.826Z,15.83
2018-11-03T21:56:57.655Z,10.03
2018-11-03T22:02:21.014Z,11.50
2018-11-03T22:05:02.008Z,14.28
2018-11-03T22:07:39.716Z,13.22
2018-11-03T22:13:05.084Z,13.70
2018-11-03T22:15:38.464Z,15.10
2018-11-03T22:18:11.751Z,15.50
2018-11-03T22:20:43.355Z,16.12
2018-11-03T22:23:21.583Z,17.95
2018-11-03T22:28:57.083Z,15.58
2018-11-03T22:31:46.318Z,16.23
2018-11-03T22:34:34.505Z,17.40
2018-11-03T22:37:07.430Z,13.68
2018-11-03T22:39:41.167Z,12.70
2018-11-03T22:45:13.296Z,13.35
2018-11-03T22:53:27.175Z,10.98
2018-11-03T23:01:38.574Z,11.97
2018-11-03T23:07:18.339Z,11.43
2018-11-03T23:09:49.055Z,11.68
2018-11-03T23:12:18.509Z,13.18
2018-11-03T23:14:48.922Z,11.15
2018-11-03T23:17:18.712Z,12.30
2018-11-03T23:19:48.117Z,10.95
2018-11-03T23:22:17.994Z,12.03
2018-11-03T23:24:51.932Z,12.18
2018-11-03T23:27:22.431Z,12.47
2018-11-03T23:29:53.545Z,12.90
2018-11-03T23:32:23.596Z,14.38
2018-11-03T23:34:56.058Z,13.65
2018-11-03T23:37:26.444Z,14.03
2018-11-03T23:39:56.957Z,13.72
2018-11-03T23:42:26.354Z,13.60
2018-11-03T23:44:56.535Z,13.20
2018-11-03T23:47:29.915Z,12.47
2018-11-03T23:50:02.439Z,13.70
2018-11-03T23:52:34.067Z,15.95
2018-11-03T23:55:05.525Z,13.48
2018-11-03T23:57:36.018Z,13.00
